• Join FlightAware (Why Join?)
  • Login
  • US Flag 
12:44AM EDT


 

Airport Tracker/Info


-or-


 

Live Flight TrackerFlight Track Log ✈ UAL4457 ✈ 16-Apr-2013 ✈ KLEX - KIAH

Flight Track Log - Related Links

Times and Time Zones

All times are in EDT time to prevent confusion due to time zone crossing. See the UAL4457 flight status page for this flight to view local times or setup timezone preferences in your user account.

Time Position Orientation Groundspeed Altitude Reporting Facility
EDT Latitude Longitude Course Direction KTS MPH feet Rate Location/Type
05:27PM 37.9447 -84.7375 234° Southwest 202 232 7,900  Level Indianapolis Center
05:28PM 37.7997 -85.0005 233° Southwest  Level FlightAware Approximate
05:28PM 37.9017 -84.8108 233° Southwest 245 282 10,800  Level Indianapolis Center
05:29PM 37.7400 -85.1001 233° Southwest  Level FlightAware Approximate
05:29PM 37.8478 -84.9075 235° Southwest 277 319 12,400  Level Indianapolis Center
05:30PM 37.6785 -85.1975 229° Southwest  Level FlightAware Approximate
05:30PM 37.7794 -84.9953 225° Southwest 330 380 14,500  Level Indianapolis Center
05:31PM 37.6092 -85.2965 229° Southwest  Level FlightAware Approximate
05:31PM 37.7031 -85.0692 217° Southwest 343 395 16,500  Level Indianapolis Center
05:32PM 37.6364 -85.1597 227° Southwest 351 404 18,500 1,920 Climbing Indianapolis Center
05:33PM 37.5822 -85.2600 236° Southwest 349 402 20,500 1,920 Climbing Indianapolis Center
05:34PM 37.5267 -85.3617 235° Southwest 350 403 22,500 1,680 Climbing Indianapolis Center
05:35PM 37.4714 -85.4639 236° Southwest 354 407 24,000 720 Climbing Indianapolis Center
05:36PM 37.3836 -85.5669 223° Southwest 393 452 24,000 900 Level Indianapolis Center
05:37PM 37.2975 -85.6639 222° Southwest 408 470 25,900 1,860 Climbing Indianapolis Center
05:38PM 37.2417 -85.7400 227° Southwest 404 465 27,300 1,920 Climbing Memphis Center
05:39PM 37.1939 -85.8522 242° Southwest 389 448 29,200 1,920 Climbing Memphis Center
05:39PM 37.1806 -85.8819 241° Southwest 363 418 29,900 1,800 Climbing Indianapolis Center
05:40PM 37.1158 -85.9753 229° Southwest 359 413 31,700 1,260 Climbing Indianapolis Center
05:41PM 37.0431 -86.0036 197° South 347 399 32,000 960 Climbing Memphis Center
05:42PM 36.9333 -86.0303 191° South 384 442 33,300 1,440 Climbing Memphis Center
05:43PM 36.8261 -86.0594 192° South 405 466 34,900 840 Climbing Memphis Center
05:44PM 36.7147 -86.0914 193° South 410 472 35,000 360 Climbing Memphis Center
05:45PM 36.5992 -86.1233 193° South 420 483 35,700 480 Climbing Memphis Center
05:46PM 36.4958 -86.1519 193° South 420 483 36,000 120 Climbing Memphis Center
05:47PM 36.3822 -86.1811 192° South 425 489 36,000  Level Memphis Center
05:48PM 36.2644 -86.2128 192° South 435 501 36,000  Level Memphis Center
05:49PM 36.1486 -86.2444 192° South 430 495 36,000  Level Memphis Center
05:50PM 36.0228 -86.2789 192° South 430 495 36,000  Level Memphis Center
05:51PM 35.9069 -86.3103 192° South 430 495 36,000  Level Memphis Center
05:52PM 35.7911 -86.3417 192° South 435 501 36,000  Level Memphis Center
05:53PM 35.6733 -86.3756 193° South 435 501 36,000  Level Memphis Center
05:55PM 35.4739 -86.4308 193° South 429 494 36,000  Level Atlanta Center
05:56PM 35.3586 -86.4606 192° South 429 494 36,000  Level Atlanta Center
05:57PM 35.2475 -86.4903 192° South 429 494 36,000  Level Atlanta Center
05:58PM 35.1300 -86.5200 192° South 423 487 36,000  Level Atlanta Center
05:59PM 35.0167 -86.5494 192° South 417 480 36,000  Level Atlanta Center
06:00PM 34.8931 -86.5811 192° South 417 480 36,000  Level Atlanta Center
06:01PM 34.7775 -86.6131 193° South 417 480 36,000  Level Atlanta Center
06:02PM 34.6622 -86.6425 192° South 417 480 36,000  Level Atlanta Center
06:03PM 34.5467 -86.6717 192° South 417 480 36,000  Level Atlanta Center
06:04PM 34.4333 -86.7008 192° South 417 480 36,000  Level Atlanta Center
06:05PM 34.3181 -86.7300 192° South 417 480 36,000  Level Atlanta Center
06:06PM 34.2025 -86.7614 193° South 417 480 36,000  Level Atlanta Center
06:07PM 34.0872 -86.7878 191° South 417 480 36,000  Level Atlanta Center
06:08PM 33.9717 -86.8192 193° South 422 486 36,000  Level Atlanta Center
06:09PM 33.8539 -86.8503 192° South 427 491 36,000  Level Atlanta Center
06:10PM 33.7406 -86.8792 192° South 427 491 36,000  Level Atlanta Center
06:11PM 33.6389 -86.9406 207° Southwest 413 475 36,000  Level Atlanta Center
06:12PM 33.5675 -87.0456 231° Southwest 400 460 36,000  Level Atlanta Center
06:13PM 33.4983 -87.1453 230° Southwest 400 460 36,000  Level Atlanta Center
06:14PM 33.4289 -87.2497 231° Southwest 406 467 36,000  Level Atlanta Center
06:16PM 33.2711 -87.4775 230° Southwest 406 467 36,000  Level Memphis Center
06:17PM 33.2022 -87.5767 230° Southwest 406 467 36,000  Level Memphis Center
06:18PM 33.1528 -87.6947 243° Southwest 406 467 36,000  Level Memphis Center
06:19PM 33.1092 -87.8103 246° West 395 455 36,000  Level Memphis Center
06:20PM 33.0656 -87.9281 246° West 390 449 36,000  Level Memphis Center
06:21PM 33.0242 -88.0456 247° West 390 449 36,000  Level Memphis Center
06:22PM 32.9844 -88.1581 247° West 384 442 36,000  Level Memphis Center
06:23PM 32.9406 -88.2756 246° West 379 436 36,000  Level Memphis Center
06:24PM 32.8983 -88.3903 246° West 384 442 36,000  Level Memphis Center
06:25PM 32.8542 -88.5050 245° Southwest 384 442 36,000  Level Memphis Center
06:26PM 32.8122 -88.6194 246° West 379 436 36,000  Level Memphis Center
06:27PM 32.7678 -88.7317 245° Southwest 379 436 36,000  Level Memphis Center
06:28PM 32.7294 -88.8361 246° West 379 436 36,000  Level Memphis Center
06:29PM 32.6869 -88.9478 246° West 379 436 36,000  Level Memphis Center
06:30PM 32.6422 -89.0572 244° Southwest 379 436 36,000  Level Memphis Center
06:31PM 32.6014 -89.1711 247° West 379 436 36,000  Level Memphis Center
06:32PM 32.5586 -89.2828 246° West 379 436 36,000  Level Memphis Center
06:33PM 32.5158 -89.3939 245° Southwest 379 436 36,000  Level Memphis Center
06:34PM 32.4706 -89.5078 245° Southwest 379 436 36,000  Level Memphis Center
06:35PM 32.4275 -89.6189 245° Southwest 379 436 36,000  Level Memphis Center
06:36PM 32.3822 -89.7325 245° Southwest 379 436 36,000  Level Memphis Center
06:37PM 32.3389 -89.8433 245° Southwest 379 436 36,000  Level Memphis Center
06:38PM 32.2933 -89.9542 244° Southwest 379 436 36,000  Level Memphis Center
06:39PM 32.2500 -90.0650 245° Southwest 379 436 36,000  Level Memphis Center
06:40PM 32.2061 -90.1781 245° Southwest 379 436 36,000  Level Memphis Center
06:41PM 32.1625 -90.2911 246° West 379 436 36,000  Level Memphis Center
06:42PM 32.1186 -90.4014 245° Southwest 379 436 36,000  Level Memphis Center
06:43PM 32.0728 -90.5117 244° Southwest 379 436 36,000  Level Memphis Center
06:44PM 32.0286 -90.6219 245° Southwest 379 436 36,000  Level Memphis Center
06:45PM 31.9903 -90.7222 246° West 369 425 36,000  Level Houston Center
06:46PM 31.9511 -90.8200 245° Southwest 371 427 36,000  Level Houston Center
06:47PM 31.8983 -90.9500 244° Southwest 368 423 36,000  Level Houston Center
06:48PM 31.8550 -91.0589 245° Southwest 368 423 36,000  Level Houston Center
06:49PM 31.8097 -91.1686 244° Southwest 371 427 36,000  Level Houston Center
06:50PM 31.7658 -91.2775 245° Southwest 370 426 36,000  Level Houston Center
06:51PM 31.7217 -91.3864 245° Southwest 370 426 36,000  Level Houston Center
06:52PM 31.6750 -91.4939 243° Southwest 370 426 36,000  Level Houston Center
06:53PM 31.6108 -91.6183 239° Southwest 372 428 36,000  Level Houston Center
06:54PM 31.5600 -91.7231 240° Southwest 371 427 36,000 -240 Level Houston Center
06:55PM 31.5078 -91.8250 239° Southwest 366 421 35,600 -1,260 Descending Houston Center
06:56PM 31.4564 -91.9294 240° Southwest 370 426 33,500 -1,740 Descending Houston Center
06:57PM 31.4039 -92.0333 239° Southwest 370 426 32,100 -1,440 Descending Houston Center
06:58PM 31.3506 -92.1372 239° Southwest 371 427 30,600 -1,020 Descending Houston Center
06:59PM 31.2836 -92.2683 239° Southwest 388 447 30,000 -300 Descending Houston Center
07:00PM 31.2256 -92.3825 239° Southwest 401 461 30,000  Level Houston Center
07:01PM 31.1672 -92.4953 239° Southwest 396 456 30,000  Level Houston Center
07:02PM 31.1128 -92.6033 240° Southwest 384 442 30,000 -300 Level Houston Center
07:03PM 31.0594 -92.7086 239° Southwest 375 432 29,400 -1,080 Descending Houston Center
07:05PM 31.0044 -92.8172 239° Southwest 387 445 27,900 -1,500 Descending Houston Center
07:06PM 30.9492 -92.9247 239° Southwest 386 444 26,300 -1,260 Descending Houston Center
07:07PM 30.8936 -93.0336 239° Southwest 390 449 25,300 -1,140 Descending Houston Center
07:08PM 30.8261 -93.1647 239° Southwest 392 451 24,000 -660 Descending Houston Center
07:09PM 30.7719 -93.2700 239° Southwest 381 438 24,000  Level Houston Center
07:10PM 30.7178 -93.3725 238° Southwest 373 429 24,000  Level Houston Center
07:11PM 30.6636 -93.4769 239° Southwest 377 434 24,000  Level Houston Center
07:12PM 30.6047 -93.5900 239° Southwest 380 437 24,000 -60 Level Houston Center
07:13PM 30.5494 -93.6961 239° Southwest 383 441 23,900 -660 Descending Houston Center
07:13PM 30.5139 -93.7644 239° Southwest 388 447 23,000 -1,560 Descending Houston Center
07:14PM 30.4933 -93.8031 238° Southwest 386 444 22,300 -1,800 Descending Houston Center
07:15PM 30.4381 -93.9072 238° Southwest 382 440 20,300 -2,160 Descending Houston Center
07:16PM 30.3739 -94.0300 239° Southwest 372 428 17,900 -2,100 Descending Houston Center
07:17PM 30.3236 -94.1250 239° Southwest 362 417 16,000 -1,860 Descending Houston Center
07:18PM 30.2706 -94.2242 238° Southwest 345 397 14,100 -1,800 Descending Houston Center
07:19PM 30.2217 -94.3175 239° Southwest 341 392 12,300 -1,020 Descending Houston Center
07:20PM 30.1900 -94.4172 250° West 336 387 12,000 -480 Descending Houston Center
07:21PM 30.1700 -94.5253 258° West 282 325 11,400 -780 Descending Houston Center
07:22PM 30.1519 -94.6219 258° West 287 330 10,400 -1,020 Descending Houston Center
07:23PM 30.1408 -94.7008 261° West 289 333 9,500 -1,080 Descending Houston Center
07:24PM 30.1228 -94.7975 258° West 285 328 8,400 -1,080 Descending Houston Center
07:25PM 30.1081 -94.8861 259° West 277 319 7,400 -1,080 Descending Houston Center
07:26PM 30.1017 -94.9739 265° West 242 278 6,200 -720 Descending Houston Center
07:27PM 30.1014 -95.0392 270° West 234 269 6,000 -120 Descending Houston Center
07:28PM 30.1050 -95.1208 273° West 240 276 6,000  Level Houston Center
07:29PM 30.1044 -95.2056 270° West 239 275 6,000  Level Houston Center
07:30PM 30.1072 -95.2825 272° West 233 268 6,000  Level Houston Center
07:31PM 30.1061 -95.3622 269° West 237 273 6,000 -240 Level Houston Center
07:32PM 30.1067 -95.4372 271° West 242 278 5,600 -720 Descending Houston Center
07:33PM 30.1067 -95.5047 270° West 228 262 4,700 -1,020 Descending Houston Center
07:34PM 30.1069 -95.5794 270° West 232 267 3,700 -840 Descending Houston Center
07:35PM 30.1036 -95.6597 267° West 239 275 3,000 -600 Descending Houston Center
07:36PM 30.1047 -95.6708 277° West 233 268 3,000  Level Houston Center
07:36PM 30.0508 -95.6803 189° South 203 234 3,000  Level Houston Center
07:37PM 30.0442 -95.6778 162° South 214 246 3,000  Level Houston Center
07:37PM 30.0131 -95.6317 128° Southeast 186 214 3,000  Level Houston Center
07:38PM 30.0064 -95.5819 99° East 172 198 3,000  Level Houston Center
07:39PM 30.0056 -95.5739 97° East 181 208 3,000  Level Houston Center
07:39PM 30.0061 -95.5311 89° East 178 205 3,000 -240 Level Houston Center
07:40PM 30.0067 -95.5175 87° East 175 201 2,800 -1,020 Descending Houston Center
07:40PM 30.0072 -95.4756 89° East 162 186 2,000 -1,020 Descending Houston Center
07:41PM 30.0081 -95.4544 87° East 170 196 1,800 -600 Descending Houston Center
07:41PM 30.0058 -95.4347 97° East 110 127 1,400 -720 Descending Houston Center